sensor_id;sensor_type;location;lat;lon;timestamp;P1;durP1;ratioP1;P2;durP2;ratioP2
19006;SDS011;9636;47.382;8.480;2023-01-19T00:01:37;2.40;;;2.20;;
19006;SDS011;9636;47.382;8.480;2023-01-19T00:04:05;2.47;;;2.23;;
19006;SDS011;9636;47.382;8.480;2023-01-19T00:06:32;2.50;;;2.30;;
19006;SDS011;9636;47.382;8.480;2023-01-19T00:08:59;3.40;;;2.70;;
19006;SDS011;9636;47.382;8.480;2023-01-19T00:11:26;2.90;;;2.40;;
19006;SDS011;9636;47.382;8.480;2023-01-19T00:13:53;2.70;;;2.13;;
19006;SDS011;9636;47.382;8.480;2023-01-19T00:16:22;3.97;;;2.50;;
19006;SDS011;9636;47.382;8.480;2023-01-19T00:18:49;2.60;;;2.10;;
19006;SDS011;9636;47.382;8.480;2023-01-19T00:21:16;2.20;;;2.00;;
19006;SDS011;9636;47.382;8.480;2023-01-19T00:23:45;2.47;;;2.13;;
19006;SDS011;9636;47.382;8.480;2023-01-19T00:26:13;2.30;;;2.10;;
19006;SDS011;9636;47.382;8.480;2023-01-19T00:28:41;2.77;;;2.10;;
19006;SDS011;9636;47.382;8.480;2023-01-19T00:31:09;2.50;;;2.10;;
19006;SDS011;9636;47.382;8.480;2023-01-19T00:33:37;3.13;;;2.10;;
19006;SDS011;9636;47.382;8.480;2023-01-19T00:36:04;2.37;;;2.17;;
19006;SDS011;9636;47.382;8.480;2023-01-19T00:38:32;2.40;;;2.07;;
19006;SDS011;9636;47.382;8.480;2023-01-19T00:40:59;3.43;;;2.43;;
19006;SDS011;9636;47.382;8.480;2023-01-19T00:43:26;2.30;;;2.07;;
19006;SDS011;9636;47.382;8.480;2023-01-19T00:45:52;2.30;;;2.10;;
19006;SDS011;9636;47.382;8.480;2023-01-19T00:48:19;2.43;;;2.23;;
19006;SDS011;9636;47.382;8.480;2023-01-19T00:50:48;2.80;;;2.20;;
19006;SDS011;9636;47.382;8.480;2023-01-19T00:53:15;2.10;;;1.90;;
19006;SDS011;9636;47.382;8.480;2023-01-19T00:55:42;2.67;;;2.47;;
19006;SDS011;9636;47.382;8.480;2023-01-19T00:58:09;2.53;;;2.33;;
19006;SDS011;9636;47.382;8.480;2023-01-19T01:00:36;2.70;;;2.27;;
19006;SDS011;9636;47.382;8.480;2023-01-19T01:03:03;2.93;;;2.60;;
19006;SDS011;9636;47.382;8.480;2023-01-19T01:05:31;2.50;;;2.30;;
19006;SDS011;9636;47.382;8.480;2023-01-19T01:07:59;3.10;;;2.70;;
19006;SDS011;9636;47.382;8.480;2023-01-19T01:10:27;2.77;;;2.47;;
19006;SDS011;9636;47.382;8.480;2023-01-19T01:12:54;2.60;;;2.40;;
19006;SDS011;9636;47.382;8.480;2023-01-19T01:15:21;2.50;;;2.30;;
19006;SDS011;9636;47.382;8.480;2023-01-19T01:17:50;2.53;;;2.33;;
19006;SDS011;9636;47.382;8.480;2023-01-19T01:20:18;2.10;;;2.00;;
19006;SDS011;9636;47.382;8.480;2023-01-19T01:22:46;2.43;;;2.23;;
19006;SDS011;9636;47.382;8.480;2023-01-19T01:25:16;2.33;;;2.13;;
19006;SDS011;9636;47.382;8.480;2023-01-19T01:27:44;2.50;;;2.27;;
19006;SDS011;9636;47.382;8.480;2023-01-19T01:30:12;2.87;;;2.67;;
19006;SDS011;9636;47.382;8.480;2023-01-19T01:32:39;3.63;;;2.30;;
19006;SDS011;9636;47.382;8.480;2023-01-19T01:35:07;2.53;;;2.33;;
19006;SDS011;9636;47.382;8.480;2023-01-19T01:37:35;3.87;;;2.73;;
19006;SDS011;9636;47.382;8.480;2023-01-19T01:40:02;2.37;;;2.17;;
19006;SDS011;9636;47.382;8.480;2023-01-19T01:42:31;3.20;;;2.40;;
19006;SDS011;9636;47.382;8.480;2023-01-19T01:44:59;3.23;;;2.50;;
19006;SDS011;9636;47.382;8.480;2023-01-19T01:47:27;2.50;;;2.30;;
19006;SDS011;9636;47.382;8.480;2023-01-19T01:49:59;3.03;;;2.57;;
19006;SDS011;9636;47.382;8.480;2023-01-19T01:52:28;3.07;;;2.40;;
19006;SDS011;9636;47.382;8.480;2023-01-19T01:54:58;3.20;;;2.47;;
19006;SDS011;9636;47.382;8.480;2023-01-19T01:57:25;2.63;;;2.40;;
19006;SDS011;9636;47.382;8.480;2023-01-19T01:59:54;3.30;;;2.60;;
19006;SDS011;9636;47.382;8.480;2023-01-19T02:02:24;3.90;;;2.60;;
19006;SDS011;9636;47.382;8.480;2023-01-19T02:05:10;3.47;;;2.30;;
19006;SDS011;9636;47.382;8.480;2023-01-19T02:07:40;4.30;;;2.77;;
19006;SDS011;9636;47.382;8.480;2023-01-19T02:10:26;2.90;;;2.50;;
19006;SDS011;9636;47.382;8.480;2023-01-19T02:13:11;4.20;;;2.80;;
19006;SDS011;9636;47.382;8.480;2023-01-19T02:15:47;2.53;;;2.30;;
19006;SDS011;9636;47.382;8.480;2023-01-19T02:18:15;2.87;;;2.40;;
19006;SDS011;9636;47.382;8.480;2023-01-19T02:20:44;2.90;;;2.60;;
19006;SDS011;9636;47.382;8.480;2023-01-19T02:23:14;2.43;;;1.97;;
19006;SDS011;9636;47.382;8.480;2023-01-19T02:25:44;2.83;;;2.50;;
19006;SDS011;9636;47.382;8.480;2023-01-19T02:28:11;2.87;;;2.40;;
19006;SDS011;9636;47.382;8.480;2023-01-19T02:30:38;2.80;;;2.60;;
19006;SDS011;9636;47.382;8.480;2023-01-19T02:33:06;3.13;;;2.70;;
19006;SDS011;9636;47.382;8.480;2023-01-19T02:35:34;3.13;;;2.80;;
19006;SDS011;9636;47.382;8.480;2023-01-19T02:38:03;3.57;;;2.70;;
19006;SDS011;9636;47.382;8.480;2023-01-19T02:40:30;3.23;;;2.63;;
19006;SDS011;9636;47.382;8.480;2023-01-19T02:42:59;3.40;;;2.73;;
19006;SDS011;9636;47.382;8.480;2023-01-19T02:45:26;2.57;;;2.37;;
19006;SDS011;9636;47.382;8.480;2023-01-19T02:47:53;2.83;;;2.43;;
19006;SDS011;9636;47.382;8.480;2023-01-19T02:55:57;2.90;;;2.50;;
19006;SDS011;9636;47.382;8.480;2023-01-19T02:58:29;3.07;;;2.60;;
19006;SDS011;9636;47.382;8.480;2023-01-19T03:01:00;3.03;;;2.73;;
19006;SDS011;9636;47.382;8.480;2023-01-19T03:03:30;3.03;;;2.73;;
19006;SDS011;9636;47.382;8.480;2023-01-19T03:06:01;3.10;;;2.67;;
19006;SDS011;9636;47.382;8.480;2023-01-19T03:08:31;2.80;;;2.60;;
19006;SDS011;9636;47.382;8.480;2023-01-19T03:11:04;4.03;;;2.77;;
19006;SDS011;9636;47.382;8.480;2023-01-19T03:13:35;3.90;;;2.83;;
19006;SDS011;9636;47.382;8.480;2023-01-19T03:16:08;4.13;;;2.97;;
19006;SDS011;9636;47.382;8.480;2023-01-19T03:18:37;3.10;;;2.77;;
19006;SDS011;9636;47.382;8.480;2023-01-19T03:21:07;3.43;;;2.40;;
19006;SDS011;9636;47.382;8.480;2023-01-19T03:23:35;3.40;;;2.60;;
19006;SDS011;9636;47.382;8.480;2023-01-19T03:26:03;2.90;;;2.60;;
19006;SDS011;9636;47.382;8.480;2023-01-19T03:28:35;3.80;;;2.90;;
19006;SDS011;9636;47.382;8.480;2023-01-19T03:31:05;4.17;;;2.90;;
19006;SDS011;9636;47.382;8.480;2023-01-19T03:33:37;4.83;;;2.97;;
19006;SDS011;9636;47.382;8.480;2023-01-19T03:36:06;3.30;;;2.90;;
19006;SDS011;9636;47.382;8.480;2023-01-19T03:38:35;3.20;;;2.90;;
19006;SDS011;9636;47.382;8.480;2023-01-19T03:41:03;3.30;;;3.00;;
19006;SDS011;9636;47.382;8.480;2023-01-19T03:43:32;3.43;;;2.80;;
19006;SDS011;9636;47.382;8.480;2023-01-19T03:46:03;3.40;;;2.53;;
19006;SDS011;9636;47.382;8.480;2023-01-19T03:48:31;3.33;;;2.83;;
19006;SDS011;9636;47.382;8.480;2023-01-19T03:51:01;3.10;;;2.77;;
19006;SDS011;9636;47.382;8.480;2023-01-19T03:53:28;3.07;;;2.77;;
19006;SDS011;9636;47.382;8.480;2023-01-19T03:55:55;3.33;;;2.83;;
19006;SDS011;9636;47.382;8.480;2023-01-19T03:58:22;3.13;;;2.83;;
19006;SDS011;9636;47.382;8.480;2023-01-19T04:00:49;3.53;;;2.90;;
19006;SDS011;9636;47.382;8.480;2023-01-19T04:03:18;2.80;;;2.57;;
19006;SDS011;9636;47.382;8.480;2023-01-19T04:05:45;3.33;;;2.60;;
19006;SDS011;9636;47.382;8.480;2023-01-19T04:08:12;3.10;;;2.80;;
19006;SDS011;9636;47.382;8.480;2023-01-19T04:10:39;3.40;;;2.60;;
19006;SDS011;9636;47.382;8.480;2023-01-19T04:13:06;3.97;;;2.70;;
19006;SDS011;9636;47.382;8.480;2023-01-19T04:15:33;3.20;;;2.90;;
19006;SDS011;9636;47.382;8.480;2023-01-19T04:18:00;2.83;;;2.53;;
19006;SDS011;9636;47.382;8.480;2023-01-19T04:20:29;4.73;;;2.90;;
19006;SDS011;9636;47.382;8.480;2023-01-19T04:22:58;3.20;;;2.77;;
19006;SDS011;9636;47.382;8.480;2023-01-19T04:25:25;3.77;;;2.60;;
19006;SDS011;9636;47.382;8.480;2023-01-19T04:27:52;3.80;;;2.70;;
19006;SDS011;9636;47.382;8.480;2023-01-19T04:30:22;3.03;;;2.63;;
19006;SDS011;9636;47.382;8.480;2023-01-19T04:32:49;2.83;;;2.50;;
19006;SDS011;9636;47.382;8.480;2023-01-19T04:35:17;3.33;;;2.70;;
19006;SDS011;9636;47.382;8.480;2023-01-19T04:37:47;3.40;;;2.80;;
19006;SDS011;9636;47.382;8.480;2023-01-19T04:40:14;2.90;;;2.50;;
19006;SDS011;9636;47.382;8.480;2023-01-19T04:42:42;3.97;;;2.47;;
19006;SDS011;9636;47.382;8.480;2023-01-19T04:45:10;2.77;;;2.43;;
19006;SDS011;9636;47.382;8.480;2023-01-19T04:47:37;3.83;;;2.40;;
19006;SDS011;9636;47.382;8.480;2023-01-19T04:50:04;3.63;;;2.57;;
19006;SDS011;9636;47.382;8.480;2023-01-19T04:52:32;2.70;;;2.50;;
19006;SDS011;9636;47.382;8.480;2023-01-19T04:55:01;2.60;;;2.37;;
19006;SDS011;9636;47.382;8.480;2023-01-19T04:57:28;2.50;;;2.30;;
19006;SDS011;9636;47.382;8.480;2023-01-19T04:59:56;3.23;;;2.67;;
19006;SDS011;9636;47.382;8.480;2023-01-19T05:02:23;2.63;;;2.33;;
19006;SDS011;9636;47.382;8.480;2023-01-19T05:04:50;2.40;;;2.20;;
19006;SDS011;9636;47.382;8.480;2023-01-19T05:07:17;2.73;;;2.20;;
19006;SDS011;9636;47.382;8.480;2023-01-19T05:09:45;3.23;;;2.10;;
19006;SDS011;9636;47.382;8.480;2023-01-19T05:12:13;3.23;;;2.47;;
19006;SDS011;9636;47.382;8.480;2023-01-19T05:14:40;2.50;;;2.13;;
19006;SDS011;9636;47.382;8.480;2023-01-19T05:17:08;2.17;;;1.90;;
19006;SDS011;9636;47.382;8.480;2023-01-19T05:19:35;2.70;;;2.17;;
19006;SDS011;9636;47.382;8.480;2023-01-19T05:22:02;3.67;;;1.93;;
19006;SDS011;9636;47.382;8.480;2023-01-19T05:24:30;2.57;;;2.00;;
19006;SDS011;9636;47.382;8.480;2023-01-19T05:26:57;2.83;;;1.90;;
19006;SDS011;9636;47.382;8.480;2023-01-19T05:29:25;2.33;;;2.13;;
19006;SDS011;9636;47.382;8.480;2023-01-19T05:31:53;2.30;;;2.00;;
19006;SDS011;9636;47.382;8.480;2023-01-19T05:34:20;2.27;;;1.93;;
19006;SDS011;9636;47.382;8.480;2023-01-19T05:36:47;2.33;;;1.97;;
19006;SDS011;9636;47.382;8.480;2023-01-19T05:39:14;2.20;;;1.77;;
19006;SDS011;9636;47.382;8.480;2023-01-19T05:41:41;2.33;;;2.03;;
19006;SDS011;9636;47.382;8.480;2023-01-19T05:44:09;2.50;;;1.93;;
19006;SDS011;9636;47.382;8.480;2023-01-19T05:46:38;1.83;;;1.70;;
19006;SDS011;9636;47.382;8.480;2023-01-19T05:49:05;2.13;;;1.77;;
19006;SDS011;9636;47.382;8.480;2023-01-19T05:51:33;2.00;;;1.83;;
19006;SDS011;9636;47.382;8.480;2023-01-19T05:54:02;2.10;;;1.90;;
19006;SDS011;9636;47.382;8.480;2023-01-19T05:56:29;2.13;;;1.93;;
19006;SDS011;9636;47.382;8.480;2023-01-19T05:58:57;2.30;;;1.80;;
19006;SDS011;9636;47.382;8.480;2023-01-19T06:01:24;2.00;;;1.70;;
19006;SDS011;9636;47.382;8.480;2023-01-19T06:03:53;2.03;;;1.80;;
19006;SDS011;9636;47.382;8.480;2023-01-19T06:06:20;1.90;;;1.70;;
19006;SDS011;9636;47.382;8.480;2023-01-19T06:08:47;1.87;;;1.60;;
19006;SDS011;9636;47.382;8.480;2023-01-19T06:11:15;1.93;;;1.63;;
19006;SDS011;9636;47.382;8.480;2023-01-19T06:13:42;2.03;;;1.70;;
19006;SDS011;9636;47.382;8.480;2023-01-19T06:16:09;1.63;;;1.53;;
19006;SDS011;9636;47.382;8.480;2023-01-19T06:18:36;1.70;;;1.60;;
19006;SDS011;9636;47.382;8.480;2023-01-19T06:21:05;1.83;;;1.47;;
19006;SDS011;9636;47.382;8.480;2023-01-19T06:23:33;1.63;;;1.53;;
19006;SDS011;9636;47.382;8.480;2023-01-19T06:26:01;1.73;;;1.60;;
19006;SDS011;9636;47.382;8.480;2023-01-19T06:28:28;1.63;;;1.53;;
19006;SDS011;9636;47.382;8.480;2023-01-19T06:30:55;1.93;;;1.50;;
19006;SDS011;9636;47.382;8.480;2023-01-19T06:33:23;2.07;;;1.50;;
19006;SDS011;9636;47.382;8.480;2023-01-19T06:35:50;1.60;;;1.50;;
19006;SDS011;9636;47.382;8.480;2023-01-19T06:38:19;1.70;;;1.60;;
19006;SDS011;9636;47.382;8.480;2023-01-19T06:40:50;1.70;;;1.50;;
19006;SDS011;9636;47.382;8.480;2023-01-19T06:43:18;1.60;;;1.50;;
19006;SDS011;9636;47.382;8.480;2023-01-19T06:45:45;1.57;;;1.47;;
19006;SDS011;9636;47.382;8.480;2023-01-19T06:48:13;1.97;;;1.60;;
19006;SDS011;9636;47.382;8.480;2023-01-19T06:50:40;1.70;;;1.60;;
19006;SDS011;9636;47.382;8.480;2023-01-19T06:53:07;1.73;;;1.63;;
19006;SDS011;9636;47.382;8.480;2023-01-19T06:55:35;1.73;;;1.60;;
19006;SDS011;9636;47.382;8.480;2023-01-19T06:58:03;1.50;;;1.40;;
19006;SDS011;9636;47.382;8.480;2023-01-19T07:00:31;1.83;;;1.57;;
19006;SDS011;9636;47.382;8.480;2023-01-19T07:02:58;1.40;;;1.30;;
19006;SDS011;9636;47.382;8.480;2023-01-19T07:05:25;1.60;;;1.50;;
19006;SDS011;9636;47.382;8.480;2023-01-19T07:07:52;1.80;;;1.60;;
19006;SDS011;9636;47.382;8.480;2023-01-19T07:10:19;1.60;;;1.50;;
19006;SDS011;9636;47.382;8.480;2023-01-19T07:12:48;1.60;;;1.50;;
19006;SDS011;9636;47.382;8.480;2023-01-19T07:15:16;1.70;;;1.60;;
19006;SDS011;9636;47.382;8.480;2023-01-19T07:17:46;1.70;;;1.60;;
19006;SDS011;9636;47.382;8.480;2023-01-19T07:20:13;1.93;;;1.73;;
19006;SDS011;9636;47.382;8.480;2023-01-19T07:22:41;1.60;;;1.50;;
19006;SDS011;9636;47.382;8.480;2023-01-19T07:25:10;1.83;;;1.50;;
19006;SDS011;9636;47.382;8.480;2023-01-19T07:27:37;1.50;;;1.40;;
19006;SDS011;9636;47.382;8.480;2023-01-19T07:30:06;1.87;;;1.57;;
19006;SDS011;9636;47.382;8.480;2023-01-19T07:32:34;1.40;;;1.30;;
19006;SDS011;9636;47.382;8.480;2023-01-19T07:35:02;2.77;;;1.50;;
19006;SDS011;9636;47.382;8.480;2023-01-19T07:37:29;1.53;;;1.40;;
19006;SDS011;9636;47.382;8.480;2023-01-19T07:39:56;1.53;;;1.43;;
19006;SDS011;9636;47.382;8.480;2023-01-19T07:42:23;1.27;;;1.17;;
19006;SDS011;9636;47.382;8.480;2023-01-19T07:44:50;1.70;;;1.40;;
19006;SDS011;9636;47.382;8.480;2023-01-19T07:47:19;1.83;;;1.67;;
19006;SDS011;9636;47.382;8.480;2023-01-19T07:49:46;1.60;;;1.50;;
19006;SDS011;9636;47.382;8.480;2023-01-19T07:52:13;1.40;;;1.30;;
19006;SDS011;9636;47.382;8.480;2023-01-19T07:54:40;1.40;;;1.30;;
19006;SDS011;9636;47.382;8.480;2023-01-19T07:57:07;1.50;;;1.40;;
19006;SDS011;9636;47.382;8.480;2023-01-19T07:59:34;1.80;;;1.30;;
19006;SDS011;9636;47.382;8.480;2023-01-19T08:02:02;2.77;;;1.37;;
19006;SDS011;9636;47.382;8.480;2023-01-19T08:04:31;1.30;;;1.20;;
19006;SDS011;9636;47.382;8.480;2023-01-19T08:06:59;2.07;;;1.40;;
19006;SDS011;9636;47.382;8.480;2023-01-19T08:09:26;1.87;;;1.43;;
19006;SDS011;9636;47.382;8.480;2023-01-19T08:11:53;2.00;;;1.60;;
19006;SDS011;9636;47.382;8.480;2023-01-19T08:14:20;1.33;;;1.20;;
19006;SDS011;9636;47.382;8.480;2023-01-19T08:16:47;1.23;;;1.20;;
19006;SDS011;9636;47.382;8.480;2023-01-19T08:19:14;2.23;;;1.37;;
19006;SDS011;9636;47.382;8.480;2023-01-19T08:21:44;1.63;;;1.30;;
19006;SDS011;9636;47.382;8.480;2023-01-19T08:24:16;1.50;;;1.40;;
19006;SDS011;9636;47.382;8.480;2023-01-19T08:26:45;1.37;;;1.27;;
19006;SDS011;9636;47.382;8.480;2023-01-19T08:29:12;1.40;;;1.30;;
19006;SDS011;9636;47.382;8.480;2023-01-19T08:31:39;1.87;;;1.60;;
19006;SDS011;9636;47.382;8.480;2023-01-19T08:34:07;1.40;;;1.30;;
19006;SDS011;9636;47.382;8.480;2023-01-19T08:36:34;3.50;;;1.50;;
19006;SDS011;9636;47.382;8.480;2023-01-19T08:39:02;1.40;;;1.30;;
19006;SDS011;9636;47.382;8.480;2023-01-19T08:41:29;1.50;;;1.40;;
19006;SDS011;9636;47.382;8.480;2023-01-19T08:43:57;1.57;;;1.47;;
19006;SDS011;9636;47.382;8.480;2023-01-19T08:46:24;1.50;;;1.30;;
19006;SDS011;9636;47.382;8.480;2023-01-19T08:48:51;1.50;;;1.13;;
19006;SDS011;9636;47.382;8.480;2023-01-19T08:51:19;1.20;;;1.10;;
19006;SDS011;9636;47.382;8.480;2023-01-19T08:53:46;1.37;;;1.27;;
19006;SDS011;9636;47.382;8.480;2023-01-19T08:56:15;1.30;;;1.20;;
19006;SDS011;9636;47.382;8.480;2023-01-19T08:58:43;1.30;;;1.20;;
19006;SDS011;9636;47.382;8.480;2023-01-19T09:01:10;1.20;;;1.10;;
19006;SDS011;9636;47.382;8.480;2023-01-19T09:03:41;2.90;;;1.50;;
19006;SDS011;9636;47.382;8.480;2023-01-19T09:06:08;1.30;;;1.20;;
19006;SDS011;9636;47.382;8.480;2023-01-19T09:08:35;1.27;;;1.20;;
19006;SDS011;9636;47.382;8.480;2023-01-19T09:11:03;1.83;;;1.20;;
19006;SDS011;9636;47.382;8.480;2023-01-19T09:13:33;2.60;;;1.60;;
19006;SDS011;9636;47.382;8.480;2023-01-19T09:16:01;1.20;;;1.10;;
19006;SDS011;9636;47.382;8.480;2023-01-19T09:18:28;1.30;;;1.20;;
19006;SDS011;9636;47.382;8.480;2023-01-19T09:20:56;2.60;;;1.30;;
19006;SDS011;9636;47.382;8.480;2023-01-19T09:23:23;1.47;;;1.37;;
19006;SDS011;9636;47.382;8.480;2023-01-19T09:25:54;2.47;;;1.30;;
19006;SDS011;9636;47.382;8.480;2023-01-19T09:28:22;1.40;;;1.30;;
19006;SDS011;9636;47.382;8.480;2023-01-19T09:30:50;1.40;;;1.30;;
19006;SDS011;9636;47.382;8.480;2023-01-19T09:33:18;1.50;;;1.30;;
19006;SDS011;9636;47.382;8.480;2023-01-19T09:35:46;1.73;;;1.30;;
19006;SDS011;9636;47.382;8.480;2023-01-19T09:38:13;1.23;;;1.20;;
19006;SDS011;9636;47.382;8.480;2023-01-19T09:40:42;1.77;;;1.40;;
19006;SDS011;9636;47.382;8.480;2023-01-19T09:43:13;1.30;;;1.20;;
19006;SDS011;9636;47.382;8.480;2023-01-19T09:45:43;1.37;;;1.10;;
19006;SDS011;9636;47.382;8.480;2023-01-19T09:48:17;1.57;;;1.40;;
19006;SDS011;9636;47.382;8.480;2023-01-19T09:50:48;1.23;;;1.20;;
19006;SDS011;9636;47.382;8.480;2023-01-19T09:53:17;1.40;;;1.30;;
19006;SDS011;9636;47.382;8.480;2023-01-19T09:55:46;1.40;;;1.30;;
19006;SDS011;9636;47.382;8.480;2023-01-19T09:58:14;1.13;;;1.13;;
19006;SDS011;9636;47.382;8.480;2023-01-19T10:00:43;1.50;;;1.40;;
19006;SDS011;9636;47.382;8.480;2023-01-19T10:03:13;1.10;;;1.10;;
19006;SDS011;9636;47.382;8.480;2023-01-19T10:05:43;1.30;;;1.20;;
19006;SDS011;9636;47.382;8.480;2023-01-19T10:08:15;1.58;;;1.17;;
19006;SDS011;9636;47.382;8.480;2023-01-19T10:10:45;1.25;;;1.15;;
19006;SDS011;9636;47.382;8.480;2023-01-19T10:13:17;1.83;;;1.40;;
19006;SDS011;9636;47.382;8.480;2023-01-19T10:15:51;1.20;;;1.10;;
19006;SDS011;9636;47.382;8.480;2023-01-19T10:18:21;3.17;;;1.40;;
19006;SDS011;9636;47.382;8.480;2023-01-19T10:21:01;2.95;;;1.58;;
19006;SDS011;9636;47.382;8.480;2023-01-19T10:23:34;1.20;;;1.10;;
19006;SDS011;9636;47.382;8.480;2023-01-19T10:26:04;2.83;;;1.20;;
19006;SDS011;9636;47.382;8.480;2023-01-19T10:28:32;1.10;;;1.00;;
19006;SDS011;9636;47.382;8.480;2023-01-19T10:31:00;1.10;;;1.00;;
19006;SDS011;9636;47.382;8.480;2023-01-19T10:33:28;1.25;;;1.10;;
19006;SDS011;9636;47.382;8.480;2023-01-19T10:35:57;1.30;;;1.20;;
19006;SDS011;9636;47.382;8.480;2023-01-19T10:38:24;1.73;;;1.30;;
19006;SDS011;9636;47.382;8.480;2023-01-19T10:40:54;1.30;;;1.20;;
19006;SDS011;9636;47.382;8.480;2023-01-19T10:43:36;1.10;;;1.10;;
19006;SDS011;9636;47.382;8.480;2023-01-19T10:46:04;1.40;;;1.10;;
19006;SDS011;9636;47.382;8.480;2023-01-19T10:48:35;1.33;;;1.23;;
19006;SDS011;9636;47.382;8.480;2023-01-19T10:51:04;1.20;;;1.10;;
19006;SDS011;9636;47.382;8.480;2023-01-19T10:53:31;1.10;;;1.10;;
19006;SDS011;9636;47.382;8.480;2023-01-19T10:56:10;1.15;;;1.08;;
19006;SDS011;9636;47.382;8.480;2023-01-19T10:58:38;1.00;;;1.00;;
19006;SDS011;9636;47.382;8.480;2023-01-19T11:01:12;1.30;;;1.20;;
19006;SDS011;9636;47.382;8.480;2023-01-19T11:03:40;1.35;;;1.10;;
19006;SDS011;9636;47.382;8.480;2023-01-19T11:06:22;4.15;;;1.35;;
19006;SDS011;9636;47.382;8.480;2023-01-19T11:08:50;2.40;;;1.00;;
19006;SDS011;9636;47.382;8.480;2023-01-19T11:11:17;3.10;;;1.10;;
19006;SDS011;9636;47.382;8.480;2023-01-19T11:13:46;4.82;;;1.60;;
19006;SDS011;9636;47.382;8.480;2023-01-19T11:16:28;1.45;;;1.15;;
19006;SDS011;9636;47.382;8.480;2023-01-19T11:18:56;2.60;;;1.20;;
19006;SDS011;9636;47.382;8.480;2023-01-19T11:21:27;1.58;;;1.10;;
19006;SDS011;9636;47.382;8.480;2023-01-19T11:23:56;3.10;;;1.27;;
19006;SDS011;9636;47.382;8.480;2023-01-19T11:26:24;1.67;;;1.20;;
19006;SDS011;9636;47.382;8.480;2023-01-19T11:28:52;2.40;;;1.10;;
19006;SDS011;9636;47.382;8.480;2023-01-19T11:31:28;3.65;;;1.67;;
19006;SDS011;9636;47.382;8.480;2023-01-19T11:33:56;3.92;;;1.33;;
19006;SDS011;9636;47.382;8.480;2023-01-19T11:36:25;1.13;;;1.00;;
19006;SDS011;9636;47.382;8.480;2023-01-19T11:38:54;1.40;;;1.02;;
19006;SDS011;9636;47.382;8.480;2023-01-19T11:41:23;2.28;;;1.35;;
19006;SDS011;9636;47.382;8.480;2023-01-19T11:43:52;3.35;;;1.30;;
19006;SDS011;9636;47.382;8.480;2023-01-19T11:46:20;2.47;;;1.00;;
19006;SDS011;9636;47.382;8.480;2023-01-19T11:48:49;2.92;;;1.23;;
19006;SDS011;9636;47.382;8.480;2023-01-19T11:51:20;2.75;;;1.23;;
19006;SDS011;9636;47.382;8.480;2023-01-19T11:53:50;4.72;;;1.52;;
19006;SDS011;9636;47.382;8.480;2023-01-19T11:56:19;3.53;;;2.47;;
19006;SDS011;9636;47.382;8.480;2023-01-19T11:58:48;9.93;;;4.28;;
19006;SDS011;9636;47.382;8.480;2023-01-19T12:01:16;4.20;;;3.75;;
19006;SDS011;9636;47.382;8.480;2023-01-19T12:03:45;4.80;;;2.75;;
19006;SDS011;9636;47.382;8.480;2023-01-19T12:06:15;3.40;;;1.90;;
19006;SDS011;9636;47.382;8.480;2023-01-19T12:08:44;2.42;;;1.98;;
19006;SDS011;9636;47.382;8.480;2023-01-19T12:11:15;3.03;;;1.67;;
19006;SDS011;9636;47.382;8.480;2023-01-19T12:13:44;3.15;;;1.38;;
19006;SDS011;9636;47.382;8.480;2023-01-19T12:16:12;1.30;;;1.20;;
19006;SDS011;9636;47.382;8.480;2023-01-19T12:18:43;2.30;;;1.17;;
19006;SDS011;9636;47.382;8.480;2023-01-19T12:21:12;2.05;;;1.40;;
19006;SDS011;9636;47.382;8.480;2023-01-19T12:23:42;1.55;;;1.38;;
19006;SDS011;9636;47.382;8.480;2023-01-19T12:29:02;1.30;;;1.20;;
19006;SDS011;9636;47.382;8.480;2023-01-19T12:31:29;1.40;;;1.30;;
19006;SDS011;9636;47.382;8.480;2023-01-19T12:36:39;1.83;;;1.45;;
19006;SDS011;9636;47.382;8.480;2023-01-19T12:39:11;1.83;;;1.25;;
19006;SDS011;9636;47.382;8.480;2023-01-19T12:41:42;2.00;;;1.10;;
19006;SDS011;9636;47.382;8.480;2023-01-19T12:44:22;1.27;;;1.00;;
19006;SDS011;9636;47.382;8.480;2023-01-19T12:46:51;3.00;;;1.10;;
19006;SDS011;9636;47.382;8.480;2023-01-19T12:49:21;1.52;;;1.10;;
19006;SDS011;9636;47.382;8.480;2023-01-19T12:51:50;1.15;;;1.05;;
19006;SDS011;9636;47.382;8.480;2023-01-19T12:54:18;1.00;;;0.90;;
19006;SDS011;9636;47.382;8.480;2023-01-19T12:56:46;1.45;;;1.00;;
19006;SDS011;9636;47.382;8.480;2023-01-19T12:59:22;1.27;;;1.17;;
19006;SDS011;9636;47.382;8.480;2023-01-19T13:04:35;1.10;;;1.00;;
19006;SDS011;9636;47.382;8.480;2023-01-19T13:07:07;1.80;;;1.00;;
19006;SDS011;9636;47.382;8.480;2023-01-19T13:09:37;1.60;;;0.93;;
19006;SDS011;9636;47.382;8.480;2023-01-19T13:12:20;1.55;;;1.30;;
19006;SDS011;9636;47.382;8.480;2023-01-19T13:14:48;1.25;;;1.10;;
19006;SDS011;9636;47.382;8.480;2023-01-19T13:17:17;1.48;;;1.20;;
19006;SDS011;9636;47.382;8.480;2023-01-19T13:20:00;1.20;;;1.13;;
19006;SDS011;9636;47.382;8.480;2023-01-19T13:22:48;1.10;;;1.00;;
19006;SDS011;9636;47.382;8.480;2023-01-19T13:25:20;1.95;;;1.08;;
19006;SDS011;9636;47.382;8.480;2023-01-19T13:27:50;1.25;;;1.00;;
19006;SDS011;9636;47.382;8.480;2023-01-19T13:30:18;0.88;;;0.85;;
19006;SDS011;9636;47.382;8.480;2023-01-19T13:32:47;0.90;;;0.90;;
19006;SDS011;9636;47.382;8.480;2023-01-19T13:35:16;1.25;;;1.15;;
19006;SDS011;9636;47.382;8.480;2023-01-19T13:37:44;1.10;;;1.00;;
19006;SDS011;9636;47.382;8.480;2023-01-19T13:40:15;1.08;;;1.08;;
19006;SDS011;9636;47.382;8.480;2023-01-19T13:42:43;1.02;;;0.93;;
19006;SDS011;9636;47.382;8.480;2023-01-19T13:45:15;1.77;;;1.10;;
19006;SDS011;9636;47.382;8.480;2023-01-19T13:47:45;1.10;;;1.10;;
19006;SDS011;9636;47.382;8.480;2023-01-19T13:50:17;3.13;;;1.10;;
19006;SDS011;9636;47.382;8.480;2023-01-19T13:52:45;1.08;;;0.90;;
19006;SDS011;9636;47.382;8.480;2023-01-19T13:55:13;0.90;;;0.90;;
19006;SDS011;9636;47.382;8.480;2023-01-19T13:57:41;2.22;;;0.90;;
19006;SDS011;9636;47.382;8.480;2023-01-19T14:00:16;1.02;;;1.00;;
19006;SDS011;9636;47.382;8.480;2023-01-19T14:02:52;1.08;;;1.02;;
19006;SDS011;9636;47.382;8.480;2023-01-19T14:05:20;0.80;;;0.80;;
19006;SDS011;9636;47.382;8.480;2023-01-19T14:07:58;0.95;;;0.85;;
19006;SDS011;9636;47.382;8.480;2023-01-19T14:10:25;1.20;;;1.00;;
19006;SDS011;9636;47.382;8.480;2023-01-19T14:12:58;1.33;;;1.00;;
19006;SDS011;9636;47.382;8.480;2023-01-19T14:15:25;1.10;;;1.00;;
19006;SDS011;9636;47.382;8.480;2023-01-19T14:20:40;0.95;;;0.90;;
19006;SDS011;9636;47.382;8.480;2023-01-19T14:25:49;1.52;;;1.05;;
19006;SDS011;9636;47.382;8.480;2023-01-19T14:28:26;0.90;;;0.90;;
19006;SDS011;9636;47.382;8.480;2023-01-19T14:30:54;1.52;;;1.08;;
19006;SDS011;9636;47.382;8.480;2023-01-19T14:33:39;0.80;;;0.80;;
19006;SDS011;9636;47.382;8.480;2023-01-19T14:36:18;0.93;;;0.90;;
19006;SDS011;9636;47.382;8.480;2023-01-19T14:38:49;0.93;;;0.93;;
19006;SDS011;9636;47.382;8.480;2023-01-19T14:41:21;0.80;;;0.80;;
19006;SDS011;9636;47.382;8.480;2023-01-19T14:43:49;1.02;;;0.90;;
19006;SDS011;9636;47.382;8.480;2023-01-19T14:46:18;1.38;;;1.00;;
19006;SDS011;9636;47.382;8.480;2023-01-19T14:48:46;2.58;;;1.00;;
19006;SDS011;9636;47.382;8.480;2023-01-19T14:51:16;1.02;;;1.00;;
19006;SDS011;9636;47.382;8.480;2023-01-19T14:53:45;1.02;;;1.00;;
19006;SDS011;9636;47.382;8.480;2023-01-19T14:56:13;1.13;;;0.90;;
19006;SDS011;9636;47.382;8.480;2023-01-19T14:58:50;0.80;;;0.80;;
19006;SDS011;9636;47.382;8.480;2023-01-19T15:01:17;1.05;;;1.00;;
19006;SDS011;9636;47.382;8.480;2023-01-19T15:03:44;0.90;;;0.90;;
19006;SDS011;9636;47.382;8.480;2023-01-19T15:06:11;1.02;;;1.02;;
19006;SDS011;9636;47.382;8.480;2023-01-19T15:08:40;1.05;;;0.95;;
19006;SDS011;9636;47.382;8.480;2023-01-19T15:11:08;1.58;;;1.05;;
19006;SDS011;9636;47.382;8.480;2023-01-19T15:13:36;2.25;;;0.90;;
19006;SDS011;9636;47.382;8.480;2023-01-19T15:16:04;1.45;;;1.10;;
19006;SDS011;9636;47.382;8.480;2023-01-19T15:18:32;0.90;;;0.88;;
19006;SDS011;9636;47.382;8.480;2023-01-19T15:21:01;1.10;;;0.73;;
19006;SDS011;9636;47.382;8.480;2023-01-19T15:23:28;1.05;;;1.00;;
19006;SDS011;9636;47.382;8.480;2023-01-19T15:25:58;1.15;;;1.05;;
19006;SDS011;9636;47.382;8.480;2023-01-19T15:28:26;1.08;;;1.05;;
19006;SDS011;9636;47.382;8.480;2023-01-19T15:30:53;1.02;;;0.90;;